createdAt,value
2022-11-18T00:02:13.914Z,98070.50
2022-11-18T00:05:02.375Z,98069.06
2022-11-18T00:07:50.722Z,98061.47
2022-11-18T00:10:39.485Z,98075.28
2022-11-18T00:13:45.520Z,98078.81
2022-11-18T00:16:35.250Z,98072.81
2022-11-18T00:19:25.192Z,98071.91
2022-11-18T00:22:14.682Z,98061.69
2022-11-18T00:25:03.051Z,98061.69
2022-11-18T00:27:51.498Z,98063.34
2022-11-18T00:30:39.836Z,98063.34
2022-11-18T00:33:29.583Z,98072.81
2022-11-18T00:36:17.975Z,98069.31
2022-11-18T00:39:06.406Z,98067.44
2022-11-18T00:42:12.550Z,98070.72
2022-11-18T00:45:00.926Z,98074.22
2022-11-18T00:47:49.319Z,98064.97
2022-11-18T00:50:39.066Z,98065.44
2022-11-18T00:53:28.138Z,98067.00
2022-11-18T00:56:16.562Z,98072.97
2022-11-18T00:59:04.966Z,98061.69
2022-11-18T01:01:54.585Z,98071.09
2022-11-18T01:04:43.030Z,98071.09
2022-11-18T01:07:32.807Z,98070.16
2022-11-18T01:10:21.299Z,98070.84
2022-11-18T01:13:21.588Z,98073.44
2022-11-18T01:16:09.993Z,98078.38
2022-11-18T01:18:58.452Z,98085.28
2022-11-18T01:21:46.856Z,98087.88
2022-11-18T01:24:36.693Z,98091.06
2022-11-18T01:27:25.082Z,98091.88
2022-11-18T01:30:16.881Z,98092.69
2022-11-18T01:33:05.921Z,98093.53
2022-11-18T01:35:54.302Z,98100.44
2022-11-18T01:38:42.713Z,98099.38
2022-11-18T01:41:32.466Z,98103.63
2022-11-18T01:45:02.099Z,98109.47
2022-11-18T01:47:53.239Z,98102.44
2022-11-18T01:50:44.877Z,98109.22
2022-11-18T01:53:35.668Z,98102.53
2022-11-18T01:56:27.872Z,98106.53
2022-11-18T01:59:20.529Z,98115.91
2022-11-18T02:02:12.046Z,98107.34
2022-11-18T02:05:00.439Z,98104.88
2022-11-18T02:07:48.888Z,98113.56
2022-11-18T02:10:37.323Z,98108.53
2022-11-18T02:13:25.767Z,98113.56
2022-11-18T02:16:16.843Z,98117.78
2022-11-18T02:19:10.194Z,98111.91
2022-11-18T02:22:03.378Z,98116.88
2022-11-18T02:24:56.941Z,98119.34
2022-11-18T02:28:01.841Z,98113.56
2022-11-18T02:30:54.981Z,98116.50
2022-11-18T02:33:48.496Z,98125.78
2022-11-18T02:36:41.664Z,98125.06
2022-11-18T02:39:34.152Z,98130.94
2022-11-18T02:42:22.545Z,98129.06
2022-11-18T02:45:15.238Z,98129.78
2022-11-18T02:48:07.395Z,98121.78
2022-11-18T02:50:55.758Z,98126.75
2022-11-18T02:53:44.148Z,98126.50
2022-11-18T02:56:32.562Z,98132.47
2022-11-18T02:59:21.440Z,98128.97
2022-11-18T03:02:11.454Z,98125.56
2022-11-18T03:05:01.253Z,98135.88
2022-11-18T03:07:52.477Z,98126.75
2022-11-18T03:10:46.694Z,98139.41
2022-11-18T03:13:39.230Z,98138.69
2022-11-18T03:16:30.808Z,98143.97
2022-11-18T03:19:23.238Z,98144.91
2022-11-18T03:22:18.820Z,98150.91
2022-11-18T03:25:09.566Z,98150.91
2022-11-18T03:28:01.700Z,98154.19
2022-11-18T03:30:54.606Z,98150.66
2022-11-18T03:33:46.235Z,98156.44
2022-11-18T03:36:37.231Z,98159.34
2022-11-18T03:39:27.019Z,98165.56
2022-11-18T03:42:17.963Z,98164.03
2022-11-18T03:45:10.687Z,98170.84
2022-11-18T03:48:01.760Z,98173.66
2022-11-18T03:50:52.688Z,98173.66
2022-11-18T03:53:44.199Z,98173.84
2022-11-18T03:56:36.892Z,98175.41
2022-11-18T03:59:27.658Z,98183.16
2022-11-18T04:02:17.182Z,98183.25
2022-11-18T04:05:07.379Z,98182.56
2022-11-18T04:07:57.906Z,98186.28
2022-11-18T04:10:50.223Z,98188.06
2022-11-18T04:13:39.971Z,98188.16
2022-11-18T04:16:28.369Z,98194.25
2022-11-18T04:19:16.740Z,98194.47
2022-11-18T04:22:05.242Z,98194.47
2022-11-18T04:24:53.648Z,98195.41
2022-11-18T04:27:42.062Z,98199.84
2022-11-18T04:30:31.882Z,98201.13
2022-11-18T04:33:20.296Z,98206.59
2022-11-18T04:36:09.428Z,98214.81
2022-11-18T04:38:57.937Z,98212.22
2022-11-18T04:41:58.349Z,98213.84
2022-11-18T04:44:46.732Z,98220.88
2022-11-18T04:47:36.699Z,98220.88
2022-11-18T04:50:25.099Z,98216.53
2022-11-18T04:53:13.523Z,98222.41
2022-11-18T04:56:06.962Z,98224.78
2022-11-18T04:58:55.360Z,98225.38
2022-11-18T05:01:43.762Z,98230.53
2022-11-18T05:04:34.719Z,98239.22
2022-11-18T05:07:23.115Z,98242.28
2022-11-18T05:10:11.602Z,98239.72
2022-11-18T05:12:59.094Z,98244.97
2022-11-18T05:15:47.512Z,98248.28
2022-11-18T05:18:36.360Z,98247.34
2022-11-18T05:21:26.058Z,98246.53
2022-11-18T05:24:14.528Z,98249.13
2022-11-18T05:27:02.890Z,98254.28
2022-11-18T05:29:51.324Z,98258.00
2022-11-18T05:32:39.743Z,98261.72
2022-11-18T05:35:28.112Z,98267.31
2022-11-18T05:38:17.831Z,98267.75
2022-11-18T05:41:06.782Z,98275.00
2022-11-18T05:43:54.194Z,98282.22
2022-11-18T05:46:42.595Z,98287.09
2022-11-18T05:49:30.958Z,98294.44
2022-11-18T05:52:19.546Z,98305.06
2022-11-18T05:55:10.136Z,98307.31
2022-11-18T05:57:58.566Z,98313.03
2022-11-18T06:00:47.347Z,98312.38
2022-11-18T06:03:37.939Z,98316.13
2022-11-18T06:06:26.328Z,98330.16
2022-11-18T06:09:14.880Z,98324.47
2022-11-18T06:12:05.573Z,98337.84
2022-11-18T06:14:56.112Z,98341.34
2022-11-18T06:17:47.049Z,98351.03
2022-11-18T06:20:35.561Z,98351.94
2022-11-18T06:23:23.988Z,98352.97
2022-11-18T06:26:14.474Z,98369.38
2022-11-18T06:29:04.325Z,98370.50
2022-11-18T06:31:52.772Z,98381.09
2022-11-18T06:34:42.077Z,98385.53
2022-11-18T06:37:30.832Z,98392.72
2022-11-18T06:40:19.592Z,98396.22
2022-11-18T06:43:25.503Z,98402.00
2022-11-18T06:46:34.479Z,98410.75
2022-11-18T06:49:22.957Z,98414.06
2022-11-18T06:52:11.367Z,98423.03
2022-11-18T06:54:59.847Z,98432.13
2022-11-18T06:57:48.253Z,98437.91
2022-11-18T07:00:36.826Z,98446.75
2022-11-18T07:03:26.615Z,98448.59
2022-11-18T07:05:54.749Z,98456.53
2022-11-18T07:08:22.909Z,98459.31
2022-11-18T07:10:53.852Z,98457.94
2022-11-18T07:13:21.985Z,98461.63
2022-11-18T07:15:50.053Z,98465.97
2022-11-18T07:18:18.227Z,98475.53
2022-11-18T07:20:47.710Z,98474.81
2022-11-18T07:23:15.805Z,98478.41
2022-11-18T07:25:45.351Z,98480.91
2022-11-18T07:28:13.608Z,98480.69
2022-11-18T07:30:41.786Z,98484.72
2022-11-18T07:33:09.957Z,98487.84
2022-11-18T07:35:38.204Z,98479.94
2022-11-18T07:38:07.646Z,98494.97
2022-11-18T07:40:35.897Z,98492.94
2022-11-18T07:43:04.014Z,98496.22
2022-11-18T07:45:32.162Z,98497.91
2022-11-18T07:48:00.321Z,98498.72
2022-11-18T07:50:28.434Z,98504.41
2022-11-18T07:52:57.429Z,98502.47
2022-11-18T07:55:31.871Z,98512.31
2022-11-18T07:58:00.359Z,98514.59
2022-11-18T08:00:28.603Z,98513.44
2022-11-18T08:02:56.741Z,98519.25
2022-11-18T08:05:25.374Z,98525.13
2022-11-18T08:07:53.524Z,98524.31
2022-11-18T08:10:21.683Z,98528.63
2022-11-18T08:12:51.132Z,98529.66
2022-11-18T08:15:19.220Z,98534.06
2022-11-18T08:17:48.078Z,98539.44
2022-11-18T08:20:16.412Z,98536.88
2022-11-18T08:22:44.559Z,98540.19
2022-11-18T08:25:12.688Z,98541.81
2022-11-18T08:27:40.817Z,98557.19
2022-11-18T08:30:12.544Z,98548.34
2022-11-18T08:32:40.663Z,98547.69
2022-11-18T08:35:11.219Z,98549.47
2022-11-18T08:37:39.694Z,98542.66
2022-11-18T08:40:09.507Z,98562.34
2022-11-18T08:42:38.466Z,98554.53
2022-11-18T08:45:08.766Z,98561.44
2022-11-18T08:47:38.456Z,98550.19
2022-11-18T08:50:07.720Z,98561.44
2022-11-18T08:52:35.811Z,98565.94
2022-11-18T08:55:04.280Z,98568.75
2022-11-18T08:57:32.718Z,98570.59
2022-11-18T09:00:00.912Z,98569.03
2022-11-18T09:02:29.080Z,98571.97
2022-11-18T09:04:58.583Z,98578.31
2022-11-18T09:07:26.850Z,98585.13
2022-11-18T09:09:55.024Z,98576.47
2022-11-18T09:12:23.118Z,98583.28
2022-11-18T09:15:12.958Z,98581.63
2022-11-18T09:17:39.548Z,98582.00
2022-11-18T09:20:10.957Z,98585.44
2022-11-18T09:22:40.055Z,98586.03
2022-11-18T09:25:09.743Z,98585.13
2022-11-18T09:27:37.919Z,98591.03
2022-11-18T09:30:07.385Z,98587.50
2022-11-18T09:32:35.546Z,98583.09
2022-11-18T09:35:03.735Z,98590.56
2022-11-18T09:37:34.398Z,98593.06
2022-11-18T09:40:02.483Z,98594.59
2022-11-18T09:42:43.100Z,98591.00
2022-11-18T09:45:24.003Z,98599.66
2022-11-18T09:47:52.900Z,98606.66
2022-11-18T09:53:19.118Z,98619.88
2022-11-18T09:55:47.483Z,98614.56
2022-11-18T09:58:19.203Z,98618.03
2022-11-18T10:00:47.319Z,98616.91
2022-11-18T10:03:18.628Z,98621.88
2022-11-18T10:05:49.466Z,98621.50
2022-11-18T10:08:23.630Z,98622.31
2022-11-18T10:10:57.376Z,98628.09
2022-11-18T10:13:37.390Z,98621.84
2022-11-18T10:16:16.762Z,98628.75
2022-11-18T10:19:04.577Z,98628.03
2022-11-18T10:21:43.304Z,98633.13
2022-11-18T10:24:16.859Z,98629.91
2022-11-18T10:26:45.212Z,98638.94
2022-11-18T10:29:13.340Z,98638.03
2022-11-18T10:31:53.218Z,98636.38
2022-11-18T10:34:21.529Z,98634.31
2022-11-18T10:37:00.767Z,98638.28
2022-11-18T10:39:30.212Z,98642.13
2022-11-18T10:42:02.169Z,98649.38
2022-11-18T10:44:38.704Z,98645.34
2022-11-18T10:47:22.946Z,98650.28
2022-11-18T10:49:51.128Z,98654.44
2022-11-18T10:52:19.337Z,98649.69
2022-11-18T10:55:09.872Z,98647.03
2022-11-18T10:57:43.325Z,98650.66
2022-11-18T11:00:41.186Z,98642.25
2022-11-18T11:03:28.178Z,98647.03
2022-11-18T11:06:32.355Z,98641.50
2022-11-18T11:09:07.200Z,98648.84
2022-11-18T11:11:39.864Z,98651.72
2022-11-18T11:14:16.538Z,98640.28
2022-11-18T11:16:51.766Z,98632.56
2022-11-18T11:19:22.945Z,98633.19
2022-11-18T11:21:51.756Z,98633.81
2022-11-18T11:24:20.103Z,98637.75
2022-11-18T11:30:12.854Z,98648.50
2022-11-18T11:33:05.781Z,98650.06
2022-11-18T11:35:36.140Z,98650.47
2022-11-18T11:38:08.356Z,98651.94
2022-11-18T11:40:51.516Z,98656.88
2022-11-18T11:43:30.921Z,98664.31
2022-11-18T11:46:15.056Z,98651.41
2022-11-18T11:48:54.367Z,98657.28
2022-11-18T11:51:29.178Z,98657.09
2022-11-18T11:54:36.742Z,98660.22
2022-11-18T11:57:06.683Z,98662.38
2022-11-18T11:59:44.522Z,98659.38
2022-11-18T12:02:49.607Z,98651.97
2022-11-18T12:05:23.222Z,98666.44
2022-11-18T12:07:55.067Z,98657.78
2022-11-18T12:10:34.069Z,98650.31
2022-11-18T12:13:13.545Z,98657.88
2022-11-18T12:15:50.647Z,98649.31
2022-11-18T12:18:22.166Z,98654.03
2022-11-18T12:20:52.316Z,98652.16
2022-11-18T12:23:22.269Z,98657.16
2022-11-18T12:26:09.549Z,98656.94
2022-11-18T12:28:41.114Z,98653.00
2022-11-18T12:31:38.073Z,98649.28
2022-11-18T12:34:40.914Z,98650.94
2022-11-18T12:37:44.995Z,98659.50
2022-11-18T12:40:38.288Z,98655.88
2022-11-18T12:43:24.466Z,98658.47
2022-11-18T12:45:56.963Z,98656.91
2022-11-18T12:48:43.441Z,98660.75
2022-11-18T12:51:41.705Z,98674.59
2022-11-18T12:54:28.778Z,98676.16
2022-11-18T12:56:58.696Z,98679.88
2022-11-18T12:59:32.478Z,98690.41
2022-11-18T13:02:19.053Z,98692.84
2022-11-18T13:05:07.307Z,98695.13
2022-11-18T13:07:59.954Z,98695.47
2022-11-18T13:10:30.830Z,98702.44
2022-11-18T13:12:59.510Z,98698.19
2022-11-18T13:15:45.396Z,98695.16
2022-11-18T13:18:16.640Z,98696.09
2022-11-18T13:20:55.531Z,98697.66
2022-11-18T13:24:03.405Z,98688.81
2022-11-18T13:26:33.128Z,98698.00
2022-11-18T13:29:26.662Z,98695.13
2022-11-18T13:32:04.747Z,98696.69
2022-11-18T13:34:33.106Z,98696.84
2022-11-18T13:37:02.577Z,98695.84
2022-11-18T13:39:32.877Z,98693.16
2022-11-18T13:42:02.659Z,98695.56
2022-11-18T13:44:32.087Z,98698.75
2022-11-18T13:47:06.264Z,98703.72
2022-11-18T13:49:50.332Z,98699.09
2022-11-18T13:52:24.977Z,98705.72
2022-11-18T13:54:53.596Z,98705.59
2022-11-18T13:57:22.966Z,98704.47
2022-11-18T13:59:51.086Z,98697.44
2022-11-18T14:02:19.655Z,98705.31
2022-11-18T14:04:54.384Z,98688.06
2022-11-18T14:07:30.311Z,98698.53
2022-11-18T14:10:00.461Z,98692.22
2022-11-18T14:12:29.915Z,98694.38
2022-11-18T14:15:20.520Z,98691.22
2022-11-18T14:17:56.433Z,98689.78
2022-11-18T14:20:24.846Z,98689.25
2022-11-18T14:22:56.272Z,98695.50
2022-11-18T14:25:28.321Z,98687.97
2022-11-18T14:27:56.723Z,98691.56
2022-11-18T14:30:28.317Z,98692.19
2022-11-18T14:33:18.648Z,98690.16
2022-11-18T14:35:50.698Z,98690.59
2022-11-18T14:38:38.445Z,98690.50
2022-11-18T14:41:12.931Z,98692.72
2022-11-18T14:43:41.536Z,98692.06
2022-11-18T14:46:15.832Z,98694.59
2022-11-18T14:48:43.985Z,98704.47
2022-11-18T14:51:14.661Z,98715.94
2022-11-18T14:53:44.725Z,98704.75
2022-11-18T14:56:23.684Z,98719.31
2022-11-18T14:58:51.789Z,98718.16
2022-11-18T15:01:19.974Z,98730.81
2022-11-18T15:03:48.168Z,98731.00
2022-11-18T15:06:16.593Z,98734.38
2022-11-18T15:08:49.259Z,98736.28
2022-11-18T15:11:19.064Z,98743.84
2022-11-18T15:13:47.339Z,98740.66
2022-11-18T15:16:16.666Z,98738.16
2022-11-18T15:18:45.712Z,98741.88
2022-11-18T15:21:13.912Z,98740.22
2022-11-18T15:23:42.001Z,98745.19
2022-11-18T15:26:19.882Z,98745.00
2022-11-18T15:28:48.434Z,98755.13
2022-11-18T15:31:17.901Z,98764.63
2022-11-18T15:33:46.335Z,98762.38
2022-11-18T15:36:15.398Z,98761.63
2022-11-18T15:38:43.597Z,98779.72
2022-11-18T15:41:17.368Z,98774.66
2022-11-18T15:43:45.846Z,98776.91
2022-11-18T15:46:14.126Z,98779.03
2022-11-18T15:48:42.536Z,98782.13
2022-11-18T15:51:12.255Z,98783.88
2022-11-18T15:53:40.694Z,98779.19
2022-11-18T15:56:17.830Z,98780.31
2022-11-18T15:58:46.002Z,98785.03
2022-11-18T16:01:14.176Z,98784.59
2022-11-18T16:03:42.505Z,98790.16
2022-11-18T16:06:10.716Z,98793.03
2022-11-18T16:08:38.876Z,98790.63
2022-11-18T16:11:24.600Z,98796.72
2022-11-18T16:13:54.412Z,98796.88
2022-11-18T16:16:22.855Z,98800.50
2022-11-18T16:18:51.334Z,98792.94
2022-11-18T16:21:19.475Z,98801.81
2022-11-18T16:23:47.702Z,98806.50
2022-11-18T16:26:17.341Z,98805.97
2022-11-18T16:28:45.770Z,98798.31
2022-11-18T16:31:32.730Z,98809.72
2022-11-18T16:34:00.814Z,98816.00
2022-11-18T16:36:29.063Z,98808.25
2022-11-18T16:38:58.019Z,98813.63
2022-11-18T16:41:32.238Z,98812.13
2022-11-18T16:44:00.645Z,98823.47
2022-11-18T16:46:31.083Z,98814.25
2022-11-18T16:48:59.334Z,98819.53
2022-11-18T16:51:28.408Z,98823.81
2022-11-18T16:53:57.850Z,98827.97
2022-11-18T16:56:27.525Z,98830.53
2022-11-18T16:58:59.408Z,98826.97
2022-11-18T17:01:29.813Z,98836.44
2022-11-18T17:04:00.389Z,98834.78
2022-11-18T17:06:29.031Z,98840.78
2022-11-18T17:08:57.255Z,98839.28
2022-11-18T17:11:25.487Z,98850.63
2022-11-18T17:13:57.904Z,98845.47
2022-11-18T17:16:27.071Z,98852.47
2022-11-18T17:18:57.457Z,98852.47
2022-11-18T17:21:25.876Z,98849.88
2022-11-18T17:23:54.000Z,98855.69
2022-11-18T17:26:23.980Z,98852.28
2022-11-18T17:28:52.165Z,98854.88
2022-11-18T17:31:21.454Z,98853.03
2022-11-18T17:33:50.239Z,98853.75
2022-11-18T17:36:21.863Z,98846.88
2022-11-18T17:38:51.306Z,98852.03
2022-11-18T17:41:38.682Z,98862.22
2022-11-18T17:44:08.050Z,98858.91
2022-11-18T17:46:38.292Z,98864.06
2022-11-18T17:49:07.919Z,98863.25
2022-11-18T17:51:37.439Z,98853.84
2022-11-18T17:54:06.232Z,98865.00
2022-11-18T17:56:34.432Z,98865.06
2022-11-18T17:59:02.669Z,98864.44
2022-11-18T18:01:30.992Z,98862.03
2022-11-18T18:03:59.215Z,98869.94
2022-11-18T18:06:27.812Z,98879.50
2022-11-18T18:09:00.363Z,98883.91
2022-11-18T18:11:29.086Z,98884.91
2022-11-18T18:14:14.549Z,98890.25
2022-11-18T18:16:44.733Z,98894.00
2022-11-18T18:19:14.109Z,98893.25
2022-11-18T18:21:42.294Z,98901.75
2022-11-18T18:24:12.091Z,98900.25
2022-11-18T18:26:40.269Z,98903.84
2022-11-18T18:29:08.395Z,98895.34
2022-11-18T18:31:37.236Z,98893.78
2022-11-18T18:34:05.638Z,98902.28
2022-11-18T18:36:33.998Z,98900.59
2022-11-18T18:39:02.500Z,98900.59
2022-11-18T18:41:32.356Z,98898.88
2022-11-18T18:44:00.698Z,98907.41
2022-11-18T18:46:34.535Z,98909.06
2022-11-18T18:49:04.670Z,98903.09
2022-11-18T18:51:35.760Z,98904.84
2022-11-18T18:54:04.075Z,98907.63
2022-11-18T18:56:33.659Z,98911.56
2022-11-18T18:59:01.887Z,98909.66
2022-11-18T19:01:30.158Z,98907.81
2022-11-18T19:03:59.630Z,98910.41
2022-11-18T19:09:17.363Z,98907.06
2022-11-18T19:12:04.481Z,98903.56
2022-11-18T19:14:33.898Z,98911.09
2022-11-18T19:17:09.180Z,98910.97
2022-11-18T19:19:56.225Z,98910.03
2022-11-18T19:22:24.376Z,98922.91
2022-11-18T19:24:53.396Z,98914.28
2022-11-18T19:27:23.470Z,98920.91
2022-11-18T19:29:51.605Z,98920.00
2022-11-18T19:32:19.719Z,98919.84
2022-11-18T19:34:47.819Z,98923.06
2022-11-18T19:37:15.934Z,98921.16
2022-11-18T19:39:44.078Z,98924.47
2022-11-18T19:42:12.181Z,98929.44
2022-11-18T19:44:41.656Z,98932.03
2022-11-18T19:47:09.815Z,98932.22
2022-11-18T19:49:37.980Z,98928.91
2022-11-18T19:52:06.190Z,98933.13
2022-11-18T19:54:34.311Z,98933.31
2022-11-18T19:57:03.793Z,98935.97
2022-11-18T19:59:32.024Z,98929.06
2022-11-18T20:02:01.704Z,98931.81
2022-11-18T20:04:30.339Z,98937.72
2022-11-18T20:06:58.459Z,98933.31
2022-11-18T20:09:26.644Z,98934.06
2022-11-18T20:11:55.866Z,98934.78
2022-11-18T20:14:23.960Z,98938.94
2022-11-18T20:16:52.577Z,98942.34
2022-11-18T20:19:22.409Z,98941.41
2022-11-18T20:21:50.786Z,98939.69
2022-11-18T20:24:19.599Z,98947.41
2022-11-18T20:26:48.563Z,98938.13
2022-11-18T20:29:17.002Z,98950.72
2022-11-18T20:31:45.625Z,98954.03
2022-11-18T20:34:14.172Z,98950.72
2022-11-18T20:36:43.704Z,98949.88
2022-11-18T20:39:14.467Z,98959.38
2022-11-18T20:41:42.716Z,98966.38
2022-11-18T20:44:10.805Z,98963.16
2022-11-18T20:46:38.992Z,98964.25
2022-11-18T20:49:07.163Z,98971.03
2022-11-18T20:51:35.425Z,98971.72
2022-11-18T20:54:09.111Z,98962.97
2022-11-18T20:56:37.421Z,98972.25
2022-11-18T20:59:05.595Z,98974.03
2022-11-18T21:01:33.944Z,98973.19
2022-11-18T21:04:20.849Z,98979.38
2022-11-18T21:07:09.306Z,98983.94
2022-11-18T21:09:59.068Z,98983.38
2022-11-18T21:13:01.431Z,98984.34
2022-11-18T21:15:49.817Z,98982.84
2022-11-18T21:18:38.204Z,98983.13
2022-11-18T21:21:44.161Z,98975.38
2022-11-18T21:24:34.108Z,98973.56
2022-11-18T21:27:23.817Z,98974.31
2022-11-18T21:30:13.651Z,98969.88
2022-11-18T21:33:02.014Z,98975.03
2022-11-18T21:35:50.409Z,98978.44
2022-11-18T21:38:38.773Z,98983.69
2022-11-18T21:41:27.247Z,98978.53
2022-11-18T21:44:17.129Z,98980.19
2022-11-18T21:47:05.642Z,98981.09
2022-11-18T21:49:54.023Z,98985.34
2022-11-18T21:52:42.395Z,98978.53
2022-11-18T21:55:30.886Z,98980.19
2022-11-18T21:58:19.390Z,98981.03
2022-11-18T22:01:10.171Z,98983.53
2022-11-18T22:03:59.613Z,98983.53
2022-11-18T22:06:47.971Z,98981.84
2022-11-18T22:09:37.162Z,98980.09
2022-11-18T22:12:25.649Z,98980.00
2022-11-18T22:15:14.072Z,98993.91
2022-11-18T22:18:03.829Z,98982.28
2022-11-18T22:20:52.201Z,98985.22
2022-11-18T22:23:40.575Z,98985.41
2022-11-18T22:26:29.296Z,98982.72
2022-11-18T22:29:17.982Z,98986.84
2022-11-18T22:32:06.638Z,98990.19
2022-11-18T22:34:56.356Z,98986.59
2022-11-18T22:37:44.730Z,98987.34
2022-11-18T22:40:33.119Z,98979.72
2022-11-18T22:43:20.530Z,98983.19
2022-11-18T22:46:09.288Z,98987.59
2022-11-18T22:48:57.804Z,98986.59
2022-11-18T22:51:47.506Z,98979.63
2022-11-18T22:54:40.103Z,98976.97
2022-11-18T22:57:34.057Z,98979.63
2022-11-18T23:00:22.596Z,98986.53
2022-11-18T23:03:11.007Z,98993.50
2022-11-18T23:05:59.807Z,98985.84
2022-11-18T23:08:49.554Z,98999.47
2022-11-18T23:11:55.405Z,98996.25
2022-11-18T23:14:43.817Z,98997.28
2022-11-18T23:17:32.203Z,99008.47
2022-11-18T23:20:20.634Z,99000.00
2022-11-18T23:23:09.053Z,99004.25
2022-11-18T23:26:04.692Z,99010.91
2022-11-18T23:28:53.094Z,99008.34
2022-11-18T23:31:42.818Z,99013.47
2022-11-18T23:34:31.302Z,99010.16
2022-11-18T23:37:19.674Z,99004.91
2022-11-18T23:40:10.127Z,99005.75
2022-11-18T23:42:59.845Z,99004.81
2022-11-18T23:45:48.268Z,99011.63
2022-11-18T23:48:38.257Z,99006.47
2022-11-18T23:51:27.029Z,99001.31
2022-11-18T23:54:15.431Z,99003.31
2022-11-18T23:57:05.328Z,99006.91
2022-11-18T23:59:55.085Z,99012.81
